Latest Coastal Weather Observations for Cape Ferguson

IDQ60701

Issued at 2:05 am EST Saturday 30 August 2014 (issued every 10 minutes, with the page automatically refreshed every 10 minutes)

About coastal observations | Map of coastal stations | Coastal observations for QLD | Marine services | Other Formats
Station Details ID: 032182 Name: CAPE FERGUSON NTC AWS Lat: -19.28 Lon: 147.06 Height: 0.0 m
Data from the previous 72 hours. | See also: Recent months for locations in Queensland
Date/Time
EST
Temp

°C
Wind Pressure Rain
since 9am
mm
Weather Cloud Vis
km
Sea
Height
m
Swell
Dir
 
Speed
knots
Gust
knots
hPa Trend Height
m
Period
s
Dir
30/02:00am 20.2 SSE 7 10 1018.1 - - - - - - - - -
30/01:30am 20.4 SSE 6 9 1018.3 - - - - - - - - -
30/01:00am 20.5 SSE 7 9 1018.5 - - - - - - - - -
30/12:30am 20.5 SSE 7 10 1018.7 - - - - - - - - -
30/12:00am 20.5 SSE 8 10 1018.7 - - - - - - - - -
 
Date/Time
EST
Temp

°C
Wind Pressure Rain
since 9am
mm
Weather Cloud Vis
km
Sea
Height
m
Swell
Dir
 
Speed
knots
Gust
knots
hPa Trend Height
m
Period
s
Dir
29/11:30pm 20.8 SSE 8 9 1018.9 - - - - - - - - -
29/11:00pm 21.0 SSE 7 9 1019.1 - - - - - - - - -
29/10:30pm 21.3 SE 7 9 1019.1 - - - - - - - - -
29/10:00pm 21.5 ESE 12 15 1019.2 - - - - - - - - -
29/09:30pm 21.8 E 13 15 1019.4 - - - - - - - - -
29/09:00pm 21.9 E 12 15 1019.3 - - - - - - - - -
29/08:30pm 21.9 E 12 15 1019.2 - - - - - - - - -
29/08:00pm 22.0 E 13 15 1018.9 - - - - - - - - -
29/07:30pm 22.0 E 13 16 1018.6 - - - - - - - - -
29/07:00pm 22.1 E 11 14 1018.3 - - - - - - - - -
29/06:30pm 22.2 E 12 15 1017.9 - - - - - - - - -
29/06:00pm 22.1 E 12 16 1017.4 - - - - - - - - -
29/05:30pm 22.2 E 13 17 1017.1 - - - - - - - - -
29/05:00pm 22.3 E 15 19 1017.0 - - - - - - - - -
29/04:30pm 22.2 E 14 18 1016.9 - - - - - - - - -
29/04:00pm 22.2 E 12 15 1016.8 - - - - - - - - -
29/03:30pm 22.1 E 14 16 1016.8 - - - - - - - - -
29/03:00pm 22.1 E 15 17 1016.8 - - - - - - - - -
29/02:30pm 21.9 E 14 16 1017.0 - - - - - - - - -
29/02:00pm 21.8 E 13 16 1017.2 - - - - - - - - -
29/01:30pm 21.7 E 15 17 1017.8 - - - - - - - - -
29/01:00pm 21.8 E 15 18 1018.4 - - - - - - - - -
29/12:30pm 21.8 E 14 17 1018.9 - - - - - - - - -
29/12:00pm 21.6 E 8 11 1019.2 - - - - - - - - -
29/11:30am 21.5 ESE 8 9 1019.7 - - - - - - - - -
29/11:00am 21.2 SE 8 10 1019.9 - - - - - - - - -
29/10:30am 20.8 SE 8 10 1020.3 - - - - - - - - -
29/10:00am 20.4 SSE 9 11 1020.4 - - - - - - - - -
29/09:30am 20.2 SSE 9 11 1020.4 - - - - - - - - -
29/09:00am 19.7 SSE 9 11 1020.4 - - - - - - - - -
29/08:30am 19.2 SSE 8 9 1020.1 - - - - - - - - -
29/08:00am 18.7 S 7 9 1019.9 - - - - - - - - -
29/07:30am 18.1 S 5 7 1019.7 - - - - - - - - -
29/07:00am 18.6 SSE 1 4 1019.4 - - - - - - - - -
29/06:30am 18.0 WNW 1 2 1019.0 - - - - - - - - -
29/06:00am 18.2 WNW 2 3 1018.6 - - - - - - - - -
29/05:30am 17.7 WNW 2 3 1018.4 - - - - - - - - -
29/05:00am 18.5 WNW 3 3 1018.2 - - - - - - - - -
29/04:30am 17.4 W 1 2 1018.2 - - - - - - - - -
29/04:00am 17.4 WNW 3 4 1018.3 - - - - - - - - -
29/03:30am 18.3 NW 3 4 1018.2 - - - - - - - - -
29/03:00am 18.6 WNW 3 4 1018.3 - - - - - - - - -
29/02:30am 18.3 WNW 3 5 1018.3 - - - - - - - - -
29/02:00am 18.1 WNW 2 3 1018.5 - - - - - - - - -
29/01:30am 17.7 WNW 3 4 1018.7 - - - - - - - - -
29/01:00am 18.7 WNW 2 3 1018.5 - - - - - - - - -
29/12:30am 18.3 NW 2 3 1018.7 - - - - - - - - -
29/12:00am 18.9 WNW 2 3 1018.9 - - - - - - - - -
 
Date/Time
EST
Temp

°C
Wind Pressure Rain
since 9am
mm
Weather Cloud Vis
km
Sea
Height
m
Swell
Dir
 
Speed
knots
Gust
knots
hPa Trend Height
m
Period
s
Dir
28/11:30pm 18.1 WNW 3 4 1018.9 - - - - - - - - -
28/11:00pm 18.0 WNW 4 5 1019.0 - - - - - - - - -
28/10:30pm 18.1 W 2 3 1019.1 - - - - - - - - -
28/10:00pm 17.6 NW 3 3 1018.8 - - - - - - - - -
28/09:30pm 18.4 W 2 4 1018.9 - - - - - - - - -
28/09:00pm 19.6 W 1 3 1018.7 - - - - - - - - -
28/08:30pm 21.0 N 1 3 1018.6 - - - - - - - - -
28/08:00pm 21.1 N 1 2 1018.5 - - - - - - - - -
28/07:30pm 20.9 N 1 3 1018.1 - - - - - - - - -
28/07:00pm 20.8 N 1 3 1017.6 - - - - - - - - -
28/06:30pm 20.9 NNE 2 4 1017.2 - - - - - - - - -
28/06:00pm 21.5 NE 3 6 1016.8 - - - - - - - - -
28/05:30pm 21.7 ENE 3 7 1016.5 - - - - - - - - -
28/05:00pm 21.6 ENE 8 10 1016.2 - - - - - - - - -
28/04:30pm 21.6 ENE 7 11 1015.9 - - - - - - - - -
28/04:00pm 21.6 ENE 7 11 1015.7 - - - - - - - - -
28/03:30pm 21.5 ENE 8 14 1015.8 - - - - - - - - -
28/03:00pm 21.2 ENE 11 14 1016.2 - - - - - - - - -
28/02:30pm 21.2 ENE 9 14 1016.4 - - - - - - - - -
28/02:00pm 21.1 ENE 10 13 1016.7 - - - - - - - - -
28/01:30pm 20.9 ENE 10 13 1017.0 - - - - - - - - -
28/01:00pm 21.0 ENE 11 13 1017.4 - - - - - - - - -
28/12:30pm 20.9 E 12 14 1017.9 - - - - - - - - -
28/12:00pm 21.0 E 12 14 1018.4 - - - - - - - - -
28/11:30am 21.2 E 11 13 1018.8 - - - - - - - - -
28/11:00am 21.6 SE 8 10 1019.2 - - - - - - - - -
28/10:30am 21.1 SE 11 15 1019.5 - - - - - - - - -
28/10:00am 20.9 SSE 12 17 1019.8 - - - - - - - - -
28/09:30am 20.9 S 13 16 1019.4 - - - - - - - - -
28/09:00am 20.7 S 15 18 1019.1 - - - - - - - - -
28/08:30am 20.5 S 16 19 1018.8 - - - - - - - - -
28/08:00am 20.4 S 15 18 1018.4 - - - - - - - - -
28/07:30am 20.2 S 13 16 1018.1 - - - - - - - - -
28/07:00am 20.3 S 12 16 1017.7 - - - - - - - - -
28/06:30am 20.3 S 10 13 1017.2 - - - - - - - - -
28/06:00am 20.5 S 10 14 1016.9 - - - - - - - - -
28/05:30am 20.7 S 10 12 1016.6 - - - - - - - - -
28/05:00am 17.9 W 3 5 1016.5 - - - - - - - - -
28/04:30am 19.3 W 2 2 1016.4 - - - - - - - - -
28/04:00am 19.4 NW 2 3 1016.2 - - - - - - - - -
28/03:30am 14.9 WNW 4 5 1016.2 - - - - - - - - -
28/03:00am 17.1 W 2 3 1016.4 - - - - - - - - -
28/02:30am 18.4 WNW 3 4 1016.5 - - - - - - - - -
28/02:00am 19.4 WNW 2 3 1016.5 - - - - - - - - -
28/01:30am 19.8 WSW 2 4 1016.8 - - - - - - - - -
28/01:00am 20.3 W 3 7 1016.9 - - - - - - - - -
28/12:30am 18.6 WNW 3 5 1016.9 - - - - - - - - -
28/12:00am 18.1 WNW 2 3 1017.0 - - - - - - - - -
 
Date/Time
EST
Temp

°C
Wind Pressure Rain
since 9am
mm
Weather Cloud Vis
km
Sea
Height
m
Swell
Dir
 
Speed
knots
Gust
knots
hPa Trend Height
m
Period
s
Dir
27/11:30pm 19.0 WNW 1 4 1017.1 - - - - - - - - -
27/11:00pm 18.6 NW 4 5 1017.2 - - - - - - - - -
27/10:30pm 18.2 W 2 2 1017.1 - - - - - - - - -
27/10:00pm 17.9 WNW 3 4 1017.1 - - - - - - - - -
27/09:30pm 18.0 WNW 3 4 1016.9 - - - - - - - - -
27/09:00pm 20.0 SW 2 3 1016.8 - - - - - - - - -
27/08:30pm 21.4 NW 3 3 1016.6 - - - - - - - - -
27/08:00pm 20.8 CALM 0 1 1016.3 - - - - - - - - -
27/07:30pm 21.2 NNW 2 3 1015.8 - - - - - - - - -
27/07:00pm 20.5 NW 3 4 1015.2 - - - - - - - - -
27/06:30pm 22.3 N 6 9 1014.7 - - - - - - - - -
27/06:00pm 23.6 NNE 5 7 1014.1 - - - - - - - - -
27/05:30pm 23.3 N 6 9 1013.8 - - - - - - - - -
27/05:00pm 24.0 NNE 6 8 1013.6 - - - - - - - - -
27/04:30pm 24.3 N 5 9 1013.5 - - - - - - - - -
27/04:00pm 24.9 N 4 8 1013.5 - - - - - - - - -
27/03:30pm 23.8 NNE 5 9 1013.5 - - - - - - - - -
27/03:00pm 23.3 NE 5 10 1013.7 - - - - - - - - -
27/02:30pm 23.2 NNE 6 10 1013.9 - - - - - - - - -
27/02:00pm 23.5 NNE 6 9 1014.3 - - - - - - - - -
27/01:30pm 23.5 NNE 6 9 1014.8 - - - - - - - - -
27/01:00pm 22.9 NNE 6 9 1015.2 - - - - - - - - -
27/12:30pm 22.9 NNE 6 9 1015.7 - - - - - - - - -
27/12:00pm 22.8 NNE 5 8 1016.4 - - - - - - - - -
27/11:30am 22.4 ENE 4 5 1016.9 - - - - - - - - -
27/11:00am 21.5 ENE 4 5 1017.5 - - - - - - - - -
27/10:30am 21.0 E 5 6 1017.7 - - - - - - - - -
27/10:00am 20.9 ESE 2 4 1017.9 - - - - - - - - -
27/09:30am 19.9 SSE 4 5 1018.1 - - - - - - - - -
27/09:00am 19.8 S 4 6 1018.0 - - - - - - - - -
27/08:30am 19.7 SW 7 8 1017.6 - - - - - - - - -
27/08:00am 19.2 SW 6 7 1017.6 - - - - - - - - -
27/07:30am 18.2 W 3 4 1017.3 - - - - - - - - -
27/07:00am 16.7 W 2 3 1016.9 - - - - - - - - -
27/06:30am 16.9 W 2 3 1016.5 - - - - - - - - -
27/06:00am 16.8 WNW 2 3 1016.2 - - - - - - - - -
27/05:30am 16.9 WNW 3 4 1015.9 - - - - - - - - -
27/05:00am 16.8 W 3 4 1015.9 - - - - - - - - -
27/04:30am 16.9 W 2 3 1015.8 - - - - - - - - -
27/04:00am 17.5 NW 3 4 1015.7 - - - - - - - - -
27/03:30am 17.1 NW 3 5 1015.7 - - - - - - - - -
27/03:00am 16.6 WNW 3 3 1015.4 - - - - - - - - -
27/02:30am 16.8 WNW 2 3 1015.5 - - - - - - - - -

Other Formats:

Comma delimited format used in spreadsheet applications
http://www.bom.gov.au/fwo/IDQ60701/IDQ60701.94297.axf

JavaScript Object Notation format (JSON) in row-major order
http://www.bom.gov.au/fwo/IDQ60701/IDQ60701.94297.json